sensor_id;sensor_type;location;lat;lon;timestamp;P1;durP1;ratioP1;P2;durP2;ratioP2
3085;SDS011;52812;48.960;9.108;2023-04-06T00:01:07;11.70;;;7.27;;
3085;SDS011;52812;48.960;9.108;2023-04-06T00:03:33;12.87;;;8.40;;
3085;SDS011;52812;48.960;9.108;2023-04-06T00:05:59;15.55;;;8.75;;
3085;SDS011;52812;48.960;9.108;2023-04-06T00:08:25;13.65;;;8.05;;
3085;SDS011;52812;48.960;9.108;2023-04-06T00:10:51;12.40;;;6.93;;
3085;SDS011;52812;48.960;9.108;2023-04-06T00:13:17;12.67;;;7.93;;
3085;SDS011;52812;48.960;9.108;2023-04-06T00:15:43;11.63;;;7.40;;
3085;SDS011;52812;48.960;9.108;2023-04-06T00:18:09;12.47;;;7.43;;
3085;SDS011;52812;48.960;9.108;2023-04-06T00:20:34;13.80;;;7.80;;
3085;SDS011;52812;48.960;9.108;2023-04-06T00:23:00;14.40;;;8.20;;
3085;SDS011;52812;48.960;9.108;2023-04-06T00:25:26;12.03;;;7.70;;
3085;SDS011;52812;48.960;9.108;2023-04-06T00:27:51;12.17;;;7.40;;
3085;SDS011;52812;48.960;9.108;2023-04-06T00:30:17;13.80;;;8.10;;
3085;SDS011;52812;48.960;9.108;2023-04-06T00:32:43;12.90;;;7.53;;
3085;SDS011;52812;48.960;9.108;2023-04-06T00:35:08;10.83;;;6.97;;
3085;SDS011;52812;48.960;9.108;2023-04-06T00:37:34;10.70;;;6.50;;
3085;SDS011;52812;48.960;9.108;2023-04-06T00:42:32;13.82;;;7.03;;
3085;SDS011;52812;48.960;9.108;2023-04-06T00:44:58;16.83;;;6.87;;
3085;SDS011;52812;48.960;9.108;2023-04-06T00:47:25;11.90;;;6.93;;
3085;SDS011;52812;48.960;9.108;2023-04-06T00:49:51;8.93;;;6.40;;
3085;SDS011;52812;48.960;9.108;2023-04-06T00:52:21;11.43;;;6.75;;
3085;SDS011;52812;48.960;9.108;2023-04-06T00:54:48;11.07;;;6.88;;
3085;SDS011;52812;48.960;9.108;2023-04-06T00:57:14;11.85;;;6.22;;
3085;SDS011;52812;48.960;9.108;2023-04-06T00:59:40;10.90;;;6.80;;
3085;SDS011;52812;48.960;9.108;2023-04-06T01:02:06;11.37;;;6.80;;
3085;SDS011;52812;48.960;9.108;2023-04-06T01:04:32;9.52;;;6.53;;
3085;SDS011;52812;48.960;9.108;2023-04-06T01:06:59;12.15;;;7.05;;
3085;SDS011;52812;48.960;9.108;2023-04-06T01:09:24;9.80;;;6.33;;
3085;SDS011;52812;48.960;9.108;2023-04-06T01:11:52;8.32;;;5.72;;
3085;SDS011;52812;48.960;9.108;2023-04-06T01:14:17;11.03;;;6.60;;
3085;SDS011;52812;48.960;9.108;2023-04-06T01:16:43;11.80;;;6.70;;
3085;SDS011;52812;48.960;9.108;2023-04-06T01:19:12;12.60;;;6.90;;
3085;SDS011;52812;48.960;9.108;2023-04-06T01:21:38;13.82;;;8.10;;
3085;SDS011;52812;48.960;9.108;2023-04-06T01:24:04;16.55;;;9.00;;
3085;SDS011;52812;48.960;9.108;2023-04-06T01:26:31;12.00;;;6.68;;
3085;SDS011;52812;48.960;9.108;2023-04-06T01:28:57;9.73;;;6.20;;
3085;SDS011;52812;48.960;9.108;2023-04-06T01:31:23;10.87;;;6.63;;
3085;SDS011;52812;48.960;9.108;2023-04-06T01:33:49;11.98;;;6.85;;
3085;SDS011;52812;48.960;9.108;2023-04-06T01:36:15;12.35;;;6.90;;
3085;SDS011;52812;48.960;9.108;2023-04-06T01:38:41;15.10;;;8.80;;
3085;SDS011;52812;48.960;9.108;2023-04-06T01:41:07;13.47;;;8.50;;
3085;SDS011;52812;48.960;9.108;2023-04-06T01:43:33;16.70;;;9.43;;
3085;SDS011;52812;48.960;9.108;2023-04-06T01:45:59;15.97;;;9.20;;
3085;SDS011;52812;48.960;9.108;2023-04-06T01:48:26;12.65;;;8.45;;
3085;SDS011;52812;48.960;9.108;2023-04-06T01:50:52;10.88;;;6.75;;
3085;SDS011;52812;48.960;9.108;2023-04-06T01:53:19;14.93;;;7.47;;
3085;SDS011;52812;48.960;9.108;2023-04-06T01:55:45;13.77;;;7.73;;
3085;SDS011;52812;48.960;9.108;2023-04-06T01:58:10;10.53;;;7.67;;
3085;SDS011;52812;48.960;9.108;2023-04-06T02:00:36;15.67;;;8.20;;
3085;SDS011;52812;48.960;9.108;2023-04-06T02:03:02;13.00;;;7.37;;
3085;SDS011;52812;48.960;9.108;2023-04-06T02:05:28;12.73;;;8.37;;
3085;SDS011;52812;48.960;9.108;2023-04-06T02:07:55;10.75;;;7.72;;
3085;SDS011;52812;48.960;9.108;2023-04-06T02:10:21;14.25;;;8.10;;
3085;SDS011;52812;48.960;9.108;2023-04-06T02:12:47;13.93;;;7.53;;
3085;SDS011;52812;48.960;9.108;2023-04-06T02:15:13;11.53;;;6.83;;
3085;SDS011;52812;48.960;9.108;2023-04-06T02:17:40;12.90;;;7.38;;
3085;SDS011;52812;48.960;9.108;2023-04-06T02:20:06;16.50;;;8.00;;
3085;SDS011;52812;48.960;9.108;2023-04-06T02:22:32;12.27;;;7.88;;
3085;SDS011;52812;48.960;9.108;2023-04-06T02:24:58;15.13;;;7.72;;
3085;SDS011;52812;48.960;9.108;2023-04-06T02:27:24;11.93;;;7.33;;
3085;SDS011;52812;48.960;9.108;2023-04-06T02:29:50;19.40;;;9.90;;
3085;SDS011;52812;48.960;9.108;2023-04-06T02:32:15;15.67;;;8.83;;
3085;SDS011;52812;48.960;9.108;2023-04-06T02:34:41;14.50;;;7.97;;
3085;SDS011;52812;48.960;9.108;2023-04-06T02:37:06;12.10;;;7.90;;
3085;SDS011;52812;48.960;9.108;2023-04-06T02:39:32;15.03;;;7.93;;
3085;SDS011;52812;48.960;9.108;2023-04-06T02:41:58;13.53;;;7.70;;
3085;SDS011;52812;48.960;9.108;2023-04-06T02:44:23;13.30;;;7.40;;
3085;SDS011;52812;48.960;9.108;2023-04-06T02:46:49;12.80;;;8.17;;
3085;SDS011;52812;48.960;9.108;2023-04-06T02:49:15;11.80;;;7.70;;
3085;SDS011;52812;48.960;9.108;2023-04-06T02:51:42;12.43;;;7.82;;
3085;SDS011;52812;48.960;9.108;2023-04-06T02:54:08;12.23;;;7.60;;
3085;SDS011;52812;48.960;9.108;2023-04-06T02:56:33;13.47;;;7.73;;
3085;SDS011;52812;48.960;9.108;2023-04-06T02:58:59;12.97;;;7.47;;
3085;SDS011;52812;48.960;9.108;2023-04-06T03:01:25;15.33;;;8.30;;
3085;SDS011;52812;48.960;9.108;2023-04-06T03:03:51;14.00;;;8.15;;
3085;SDS011;52812;48.960;9.108;2023-04-06T03:06:17;17.87;;;9.47;;
3085;SDS011;52812;48.960;9.108;2023-04-06T03:08:42;18.53;;;9.53;;
3085;SDS011;52812;48.960;9.108;2023-04-06T03:11:08;15.70;;;9.77;;
3085;SDS011;52812;48.960;9.108;2023-04-06T03:13:36;13.00;;;7.73;;
3085;SDS011;52812;48.960;9.108;2023-04-06T03:16:03;13.02;;;8.13;;
3085;SDS011;52812;48.960;9.108;2023-04-06T03:18:29;13.77;;;8.43;;
3085;SDS011;52812;48.960;9.108;2023-04-06T03:20:55;15.30;;;8.40;;
3085;SDS011;52812;48.960;9.108;2023-04-06T03:23:21;11.07;;;7.40;;
3085;SDS011;52812;48.960;9.108;2023-04-06T03:25:46;14.00;;;7.27;;
3085;SDS011;52812;48.960;9.108;2023-04-06T03:28:12;10.90;;;7.27;;
3085;SDS011;52812;48.960;9.108;2023-04-06T03:30:37;13.77;;;7.57;;
3085;SDS011;52812;48.960;9.108;2023-04-06T03:33:03;10.80;;;7.37;;
3085;SDS011;52812;48.960;9.108;2023-04-06T03:35:29;10.55;;;7.75;;
3085;SDS011;52812;48.960;9.108;2023-04-06T03:37:55;11.50;;;7.50;;
3085;SDS011;52812;48.960;9.108;2023-04-06T03:40:20;12.93;;;7.60;;
3085;SDS011;52812;48.960;9.108;2023-04-06T03:42:46;12.33;;;8.20;;
3085;SDS011;52812;48.960;9.108;2023-04-06T03:45:11;11.43;;;7.80;;
3085;SDS011;52812;48.960;9.108;2023-04-06T03:47:40;12.95;;;8.32;;
3085;SDS011;52812;48.960;9.108;2023-04-06T03:50:06;16.23;;;8.47;;
3085;SDS011;52812;48.960;9.108;2023-04-06T03:52:31;15.75;;;8.35;;
3085;SDS011;52812;48.960;9.108;2023-04-06T03:54:57;13.63;;;8.07;;
3085;SDS011;52812;48.960;9.108;2023-04-06T03:57:23;14.13;;;8.90;;
3085;SDS011;52812;48.960;9.108;2023-04-06T03:59:48;13.80;;;7.87;;
3085;SDS011;52812;48.960;9.108;2023-04-06T04:02:14;10.87;;;7.40;;
3085;SDS011;52812;48.960;9.108;2023-04-06T04:04:40;12.87;;;7.40;;
3085;SDS011;52812;48.960;9.108;2023-04-06T04:07:05;12.67;;;7.67;;
3085;SDS011;52812;48.960;9.108;2023-04-06T04:09:31;13.33;;;7.87;;
3085;SDS011;52812;48.960;9.108;2023-04-06T04:11:56;13.83;;;8.17;;
3085;SDS011;52812;48.960;9.108;2023-04-06T04:14:22;14.80;;;8.13;;
3085;SDS011;52812;48.960;9.108;2023-04-06T04:16:47;12.90;;;8.33;;
3085;SDS011;52812;48.960;9.108;2023-04-06T04:19:14;14.68;;;8.40;;
3085;SDS011;52812;48.960;9.108;2023-04-06T04:21:43;13.67;;;7.67;;
3085;SDS011;52812;48.960;9.108;2023-04-06T04:24:10;12.48;;;7.43;;
3085;SDS011;52812;48.960;9.108;2023-04-06T04:26:36;16.30;;;8.55;;
3085;SDS011;52812;48.960;9.108;2023-04-06T04:29:03;14.90;;;7.60;;
3085;SDS011;52812;48.960;9.108;2023-04-06T04:31:28;14.13;;;7.47;;
3085;SDS011;52812;48.960;9.108;2023-04-06T04:33:54;16.97;;;9.03;;
3085;SDS011;52812;48.960;9.108;2023-04-06T04:36:20;16.57;;;9.10;;
3085;SDS011;52812;48.960;9.108;2023-04-06T04:38:45;18.73;;;9.00;;
3085;SDS011;52812;48.960;9.108;2023-04-06T04:41:11;16.50;;;9.17;;
3085;SDS011;52812;48.960;9.108;2023-04-06T04:43:37;12.83;;;8.27;;
3085;SDS011;52812;48.960;9.108;2023-04-06T04:46:03;15.50;;;8.65;;
3085;SDS011;52812;48.960;9.108;2023-04-06T04:48:29;18.70;;;8.70;;
3085;SDS011;52812;48.960;9.108;2023-04-06T04:50:55;19.47;;;9.73;;
3085;SDS011;52812;48.960;9.108;2023-04-06T04:53:21;17.60;;;9.70;;
3085;SDS011;52812;48.960;9.108;2023-04-06T04:55:46;21.60;;;10.37;;
3085;SDS011;52812;48.960;9.108;2023-04-06T04:58:12;14.80;;;8.50;;
3085;SDS011;52812;48.960;9.108;2023-04-06T05:00:41;20.17;;;9.23;;
3085;SDS011;52812;48.960;9.108;2023-04-06T05:03:07;19.50;;;9.70;;
3085;SDS011;52812;48.960;9.108;2023-04-06T05:05:34;14.90;;;8.52;;
3085;SDS011;52812;48.960;9.108;2023-04-06T05:08:00;14.70;;;8.87;;
3085;SDS011;52812;48.960;9.108;2023-04-06T05:10:26;18.48;;;9.30;;
3085;SDS011;52812;48.960;9.108;2023-04-06T05:12:52;15.10;;;9.00;;
3085;SDS011;52812;48.960;9.108;2023-04-06T05:15:17;15.13;;;8.87;;
3085;SDS011;52812;48.960;9.108;2023-04-06T05:17:43;13.70;;;8.50;;
3085;SDS011;52812;48.960;9.108;2023-04-06T05:20:09;12.90;;;9.17;;
3085;SDS011;52812;48.960;9.108;2023-04-06T05:22:35;12.63;;;8.70;;
3085;SDS011;52812;48.960;9.108;2023-04-06T05:25:01;14.97;;;8.60;;
3085;SDS011;52812;48.960;9.108;2023-04-06T05:27:27;15.30;;;8.38;;
3085;SDS011;52812;48.960;9.108;2023-04-06T05:29:53;13.97;;;8.53;;
3085;SDS011;52812;48.960;9.108;2023-04-06T05:32:19;14.83;;;8.50;;
3085;SDS011;52812;48.960;9.108;2023-04-06T05:34:47;11.47;;;7.97;;
3085;SDS011;52812;48.960;9.108;2023-04-06T05:37:14;14.53;;;8.80;;
3085;SDS011;52812;48.960;9.108;2023-04-06T05:39:40;11.10;;;7.70;;
3085;SDS011;52812;48.960;9.108;2023-04-06T05:42:06;14.60;;;8.37;;
3085;SDS011;52812;48.960;9.108;2023-04-06T05:44:32;13.43;;;7.77;;
3085;SDS011;52812;48.960;9.108;2023-04-06T05:46:58;12.30;;;7.50;;
3085;SDS011;52812;48.960;9.108;2023-04-06T05:49:23;14.50;;;8.90;;
3085;SDS011;52812;48.960;9.108;2023-04-06T05:51:49;11.30;;;7.93;;
3085;SDS011;52812;48.960;9.108;2023-04-06T05:54:14;14.00;;;8.40;;
3085;SDS011;52812;48.960;9.108;2023-04-06T05:56:40;12.23;;;8.40;;
3085;SDS011;52812;48.960;9.108;2023-04-06T05:59:06;13.97;;;9.43;;
3085;SDS011;52812;48.960;9.108;2023-04-06T06:01:32;13.63;;;9.20;;
3085;SDS011;52812;48.960;9.108;2023-04-06T06:04:00;14.83;;;9.30;;
3085;SDS011;52812;48.960;9.108;2023-04-06T06:06:27;14.00;;;9.10;;
3085;SDS011;52812;48.960;9.108;2023-04-06T06:08:53;14.33;;;9.13;;
3085;SDS011;52812;48.960;9.108;2023-04-06T06:11:20;14.13;;;9.20;;
3085;SDS011;52812;48.960;9.108;2023-04-06T06:13:46;11.47;;;8.80;;
3085;SDS011;52812;48.960;9.108;2023-04-06T06:16:11;19.67;;;10.57;;
3085;SDS011;52812;48.960;9.108;2023-04-06T06:18:37;15.33;;;10.10;;
3085;SDS011;52812;48.960;9.108;2023-04-06T06:21:03;14.70;;;9.37;;
3085;SDS011;52812;48.960;9.108;2023-04-06T06:23:29;15.30;;;10.10;;
3085;SDS011;52812;48.960;9.108;2023-04-06T06:25:55;14.50;;;10.60;;
3085;SDS011;52812;48.960;9.108;2023-04-06T06:28:22;16.63;;;10.57;;
3085;SDS011;52812;48.960;9.108;2023-04-06T06:30:50;15.93;;;10.93;;
3085;SDS011;52812;48.960;9.108;2023-04-06T06:33:15;14.33;;;10.47;;
3085;SDS011;52812;48.960;9.108;2023-04-06T06:35:41;14.40;;;10.27;;
3085;SDS011;52812;48.960;9.108;2023-04-06T06:38:07;16.70;;;11.23;;
3085;SDS011;52812;48.960;9.108;2023-04-06T06:40:33;18.50;;;11.07;;
3085;SDS011;52812;48.960;9.108;2023-04-06T06:42:58;17.43;;;12.30;;
3085;SDS011;52812;48.960;9.108;2023-04-06T06:45:24;15.23;;;10.97;;
3085;SDS011;52812;48.960;9.108;2023-04-06T06:47:50;16.30;;;11.93;;
3085;SDS011;52812;48.960;9.108;2023-04-06T06:50:16;15.67;;;11.47;;
3085;SDS011;52812;48.960;9.108;2023-04-06T06:52:41;17.73;;;11.47;;
3085;SDS011;52812;48.960;9.108;2023-04-06T06:55:08;18.30;;;11.10;;
3085;SDS011;52812;48.960;9.108;2023-04-06T06:57:35;17.40;;;11.40;;
3085;SDS011;52812;48.960;9.108;2023-04-06T07:00:00;14.83;;;10.67;;
3085;SDS011;52812;48.960;9.108;2023-04-06T07:02:26;17.27;;;11.20;;
3085;SDS011;52812;48.960;9.108;2023-04-06T07:04:52;18.53;;;11.07;;
3085;SDS011;52812;48.960;9.108;2023-04-06T07:07:17;16.63;;;11.83;;
3085;SDS011;52812;48.960;9.108;2023-04-06T07:09:43;18.23;;;12.37;;
3085;SDS011;52812;48.960;9.108;2023-04-06T07:12:08;16.50;;;11.53;;
3085;SDS011;52812;48.960;9.108;2023-04-06T07:14:34;17.87;;;11.67;;
3085;SDS011;52812;48.960;9.108;2023-04-06T07:17:01;17.40;;;11.40;;
3085;SDS011;52812;48.960;9.108;2023-04-06T07:19:27;16.77;;;11.40;;
3085;SDS011;52812;48.960;9.108;2023-04-06T07:21:52;16.63;;;11.87;;
3085;SDS011;52812;48.960;9.108;2023-04-06T07:24:18;17.00;;;12.20;;
3085;SDS011;52812;48.960;9.108;2023-04-06T07:26:43;17.53;;;11.57;;
3085;SDS011;52812;48.960;9.108;2023-04-06T07:29:09;20.00;;;11.73;;
3085;SDS011;52812;48.960;9.108;2023-04-06T07:31:35;16.30;;;11.33;;
3085;SDS011;52812;48.960;9.108;2023-04-06T07:34:01;19.40;;;11.37;;
3085;SDS011;52812;48.960;9.108;2023-04-06T07:36:26;15.50;;;11.90;;
3085;SDS011;52812;48.960;9.108;2023-04-06T07:38:52;16.97;;;12.50;;
3085;SDS011;52812;48.960;9.108;2023-04-06T07:41:17;22.03;;;11.47;;
3085;SDS011;52812;48.960;9.108;2023-04-06T07:43:43;16.27;;;11.27;;
3085;SDS011;52812;48.960;9.108;2023-04-06T07:46:09;16.20;;;11.90;;
3085;SDS011;52812;48.960;9.108;2023-04-06T07:48:34;16.30;;;11.73;;
3085;SDS011;52812;48.960;9.108;2023-04-06T07:51:02;14.27;;;11.20;;
3085;SDS011;52812;48.960;9.108;2023-04-06T07:53:29;16.00;;;11.17;;
3085;SDS011;52812;48.960;9.108;2023-04-06T07:55:55;14.00;;;11.10;;
3085;SDS011;52812;48.960;9.108;2023-04-06T07:58:21;17.07;;;11.20;;
3085;SDS011;52812;48.960;9.108;2023-04-06T08:00:47;15.90;;;12.10;;
3085;SDS011;52812;48.960;9.108;2023-04-06T08:03:12;16.97;;;12.07;;
3085;SDS011;52812;48.960;9.108;2023-04-06T08:05:38;14.30;;;11.40;;
3085;SDS011;52812;48.960;9.108;2023-04-06T08:08:03;18.50;;;12.30;;
3085;SDS011;52812;48.960;9.108;2023-04-06T08:10:29;16.20;;;11.33;;
3085;SDS011;52812;48.960;9.108;2023-04-06T08:12:55;17.60;;;11.10;;
3085;SDS011;52812;48.960;9.108;2023-04-06T08:15:20;14.20;;;10.70;;
3085;SDS011;52812;48.960;9.108;2023-04-06T08:17:46;14.40;;;11.23;;
3085;SDS011;52812;48.960;9.108;2023-04-06T08:20:11;16.80;;;11.10;;
3085;SDS011;52812;48.960;9.108;2023-04-06T08:22:37;19.47;;;11.27;;
3085;SDS011;52812;48.960;9.108;2023-04-06T08:25:03;18.73;;;11.77;;
3085;SDS011;52812;48.960;9.108;2023-04-06T08:27:29;15.30;;;10.80;;
3085;SDS011;52812;48.960;9.108;2023-04-06T08:29:54;17.90;;;11.87;;
3085;SDS011;52812;48.960;9.108;2023-04-06T08:32:20;19.67;;;11.87;;
3085;SDS011;52812;48.960;9.108;2023-04-06T08:34:46;15.80;;;10.87;;
3085;SDS011;52812;48.960;9.108;2023-04-06T08:37:11;19.00;;;11.20;;
3085;SDS011;52812;48.960;9.108;2023-04-06T08:39:37;19.17;;;10.60;;
3085;SDS011;52812;48.960;9.108;2023-04-06T08:42:03;15.50;;;10.30;;
3085;SDS011;52812;48.960;9.108;2023-04-06T08:44:29;17.70;;;11.20;;
3085;SDS011;52812;48.960;9.108;2023-04-06T08:46:56;16.50;;;10.60;;
3085;SDS011;52812;48.960;9.108;2023-04-06T08:49:24;16.97;;;10.60;;
3085;SDS011;52812;48.960;9.108;2023-04-06T08:51:50;15.37;;;9.57;;
3085;SDS011;52812;48.960;9.108;2023-04-06T08:54:16;13.60;;;10.10;;
3085;SDS011;52812;48.960;9.108;2023-04-06T08:56:41;16.33;;;10.43;;
3085;SDS011;52812;48.960;9.108;2023-04-06T08:59:08;15.17;;;10.70;;
3085;SDS011;52812;48.960;9.108;2023-04-06T09:01:36;17.23;;;10.33;;
3085;SDS011;52812;48.960;9.108;2023-04-06T09:04:06;14.73;;;10.07;;
3085;SDS011;52812;48.960;9.108;2023-04-06T09:06:35;16.83;;;10.70;;
3085;SDS011;52812;48.960;9.108;2023-04-06T09:09:02;18.50;;;11.73;;
3085;SDS011;52812;48.960;9.108;2023-04-06T09:11:28;18.07;;;10.90;;
3085;SDS011;52812;48.960;9.108;2023-04-06T09:13:54;16.63;;;11.13;;
3085;SDS011;52812;48.960;9.108;2023-04-06T09:16:21;16.60;;;10.47;;
3085;SDS011;52812;48.960;9.108;2023-04-06T09:18:48;17.90;;;11.10;;
3085;SDS011;52812;48.960;9.108;2023-04-06T09:21:16;14.97;;;9.77;;
3085;SDS011;52812;48.960;9.108;2023-04-06T09:23:43;16.90;;;10.10;;
3085;SDS011;52812;48.960;9.108;2023-04-06T09:26:10;13.57;;;9.60;;
3085;SDS011;52812;48.960;9.108;2023-04-06T09:28:49;15.13;;;9.53;;
3085;SDS011;52812;48.960;9.108;2023-04-06T09:31:16;15.40;;;9.70;;
3085;SDS011;52812;48.960;9.108;2023-04-06T09:33:46;14.90;;;9.50;;
3085;SDS011;52812;48.960;9.108;2023-04-06T09:36:12;16.13;;;10.20;;
3085;SDS011;52812;48.960;9.108;2023-04-06T09:38:53;15.13;;;9.27;;
3085;SDS011;52812;48.960;9.108;2023-04-06T09:41:24;12.40;;;8.23;;
3085;SDS011;52812;48.960;9.108;2023-04-06T09:44:02;16.13;;;9.07;;
3085;SDS011;52812;48.960;9.108;2023-04-06T09:46:31;11.47;;;8.50;;
3085;SDS011;52812;48.960;9.108;2023-04-06T09:48:59;14.40;;;8.63;;
3085;SDS011;52812;48.960;9.108;2023-04-06T09:51:30;12.90;;;8.30;;
3085;SDS011;52812;48.960;9.108;2023-04-06T09:54:00;13.70;;;8.90;;
3085;SDS011;52812;48.960;9.108;2023-04-06T09:56:30;13.70;;;9.10;;
3085;SDS011;52812;48.960;9.108;2023-04-06T09:59:05;12.37;;;8.77;;
3085;SDS011;52812;48.960;9.108;2023-04-06T10:01:35;14.77;;;8.90;;
3085;SDS011;52812;48.960;9.108;2023-04-06T10:04:08;11.20;;;8.20;;
3085;SDS011;52812;48.960;9.108;2023-04-06T10:06:51;12.77;;;8.80;;
3085;SDS011;52812;48.960;9.108;2023-04-06T10:09:18;12.10;;;8.50;;
3085;SDS011;52812;48.960;9.108;2023-04-06T10:11:45;12.43;;;7.47;;
3085;SDS011;52812;48.960;9.108;2023-04-06T10:14:12;14.63;;;8.80;;
3085;SDS011;52812;48.960;9.108;2023-04-06T10:16:39;11.60;;;8.47;;
3085;SDS011;52812;48.960;9.108;2023-04-06T10:19:06;12.77;;;8.87;;
3085;SDS011;52812;48.960;9.108;2023-04-06T10:21:38;12.60;;;8.60;;
3085;SDS011;52812;48.960;9.108;2023-04-06T10:24:08;10.60;;;7.90;;
3085;SDS011;52812;48.960;9.108;2023-04-06T10:26:35;14.20;;;8.70;;
3085;SDS011;52812;48.960;9.108;2023-04-06T10:29:02;12.20;;;8.33;;
3085;SDS011;52812;48.960;9.108;2023-04-06T10:31:29;12.20;;;7.73;;
3085;SDS011;52812;48.960;9.108;2023-04-06T10:33:59;12.33;;;8.50;;
3085;SDS011;52812;48.960;9.108;2023-04-06T10:36:26;13.13;;;8.10;;
3085;SDS011;52812;48.960;9.108;2023-04-06T10:38:58;9.50;;;7.00;;
3085;SDS011;52812;48.960;9.108;2023-04-06T10:41:58;16.30;;;8.80;;
3085;SDS011;52812;48.960;9.108;2023-04-06T10:44:21;13.80;;;8.53;;
3085;SDS011;52812;48.960;9.108;2023-04-06T10:46:57;14.00;;;8.63;;
3085;SDS011;52812;48.960;9.108;2023-04-06T10:49:25;16.30;;;9.10;;
3085;SDS011;52812;48.960;9.108;2023-04-06T10:51:52;13.60;;;8.90;;
3085;SDS011;52812;48.960;9.108;2023-04-06T10:54:20;12.77;;;8.90;;
3085;SDS011;52812;48.960;9.108;2023-04-06T10:56:47;16.57;;;9.10;;
3085;SDS011;52812;48.960;9.108;2023-04-06T10:59:13;14.87;;;9.40;;
3085;SDS011;52812;48.960;9.108;2023-04-06T11:01:44;14.87;;;9.60;;
3085;SDS011;52812;48.960;9.108;2023-04-06T11:04:15;13.27;;;9.00;;
3085;SDS011;52812;48.960;9.108;2023-04-06T11:06:41;14.40;;;9.60;;
3085;SDS011;52812;48.960;9.108;2023-04-06T11:09:12;15.50;;;9.50;;
3085;SDS011;52812;48.960;9.108;2023-04-06T11:11:51;13.73;;;8.93;;
3085;SDS011;52812;48.960;9.108;2023-04-06T11:14:17;13.63;;;8.83;;
3085;SDS011;52812;48.960;9.108;2023-04-06T11:16:45;13.80;;;8.70;;
3085;SDS011;52812;48.960;9.108;2023-04-06T11:19:13;12.67;;;8.30;;
3085;SDS011;52812;48.960;9.108;2023-04-06T11:21:40;13.80;;;8.67;;
3085;SDS011;52812;48.960;9.108;2023-04-06T11:24:23;13.97;;;8.90;;
3085;SDS011;52812;48.960;9.108;2023-04-06T11:26:50;13.83;;;8.30;;
3085;SDS011;52812;48.960;9.108;2023-04-06T11:29:22;14.67;;;9.37;;
3085;SDS011;52812;48.960;9.108;2023-04-06T11:31:53;14.20;;;8.73;;
3085;SDS011;52812;48.960;9.108;2023-04-06T11:34:24;15.07;;;9.23;;
3085;SDS011;52812;48.960;9.108;2023-04-06T11:37:00;14.13;;;8.97;;
3085;SDS011;52812;48.960;9.108;2023-04-06T11:39:27;15.50;;;8.53;;
3085;SDS011;52812;48.960;9.108;2023-04-06T11:41:54;13.83;;;8.90;;
3085;SDS011;52812;48.960;9.108;2023-04-06T11:44:31;14.67;;;9.40;;
3085;SDS011;52812;48.960;9.108;2023-04-06T11:47:01;13.30;;;8.60;;
3085;SDS011;52812;48.960;9.108;2023-04-06T11:49:28;13.40;;;8.60;;
3085;SDS011;52812;48.960;9.108;2023-04-06T11:51:55;14.87;;;8.47;;
3085;SDS011;52812;48.960;9.108;2023-04-06T11:54:34;13.83;;;8.67;;
3085;SDS011;52812;48.960;9.108;2023-04-06T11:57:03;13.83;;;8.40;;
3085;SDS011;52812;48.960;9.108;2023-04-06T11:59:30;12.73;;;8.60;;
3085;SDS011;52812;48.960;9.108;2023-04-06T12:01:57;11.17;;;8.00;;
3085;SDS011;52812;48.960;9.108;2023-04-06T12:04:23;12.27;;;8.60;;
3085;SDS011;52812;48.960;9.108;2023-04-06T12:06:49;13.80;;;8.80;;
3085;SDS011;52812;48.960;9.108;2023-04-06T12:09:15;11.10;;;7.97;;
3085;SDS011;52812;48.960;9.108;2023-04-06T12:11:44;14.60;;;8.63;;
3085;SDS011;52812;48.960;9.108;2023-04-06T12:14:10;13.53;;;8.20;;
3085;SDS011;52812;48.960;9.108;2023-04-06T12:16:37;15.27;;;9.13;;
3085;SDS011;52812;48.960;9.108;2023-04-06T12:19:03;14.10;;;8.80;;
3085;SDS011;52812;48.960;9.108;2023-04-06T12:21:29;15.20;;;8.50;;
3085;SDS011;52812;48.960;9.108;2023-04-06T12:23:58;11.60;;;7.90;;
3085;SDS011;52812;48.960;9.108;2023-04-06T12:26:24;15.27;;;8.40;;
3085;SDS011;52812;48.960;9.108;2023-04-06T12:28:51;12.53;;;8.10;;
3085;SDS011;52812;48.960;9.108;2023-04-06T12:31:17;12.97;;;8.30;;
3085;SDS011;52812;48.960;9.108;2023-04-06T12:33:44;11.33;;;8.00;;
3085;SDS011;52812;48.960;9.108;2023-04-06T12:36:15;10.63;;;7.67;;
3085;SDS011;52812;48.960;9.108;2023-04-06T12:38:44;12.23;;;8.50;;
3085;SDS011;52812;48.960;9.108;2023-04-06T12:41:11;17.13;;;8.87;;
3085;SDS011;52812;48.960;9.108;2023-04-06T12:43:36;11.97;;;8.87;;
3085;SDS011;52812;48.960;9.108;2023-04-06T12:46:02;13.60;;;8.80;;
3085;SDS011;52812;48.960;9.108;2023-04-06T12:48:29;14.30;;;9.30;;
3085;SDS011;52812;48.960;9.108;2023-04-06T12:50:57;11.10;;;8.73;;
3085;SDS011;52812;48.960;9.108;2023-04-06T12:53:23;13.57;;;8.40;;
3085;SDS011;52812;48.960;9.108;2023-04-06T12:55:52;11.37;;;7.70;;
3085;SDS011;52812;48.960;9.108;2023-04-06T12:58:19;15.50;;;8.70;;
3085;SDS011;52812;48.960;9.108;2023-04-06T13:00:46;16.50;;;8.70;;
3085;SDS011;52812;48.960;9.108;2023-04-06T13:03:12;12.73;;;8.07;;
3085;SDS011;52812;48.960;9.108;2023-04-06T13:05:45;13.30;;;8.20;;
3085;SDS011;52812;48.960;9.108;2023-04-06T13:08:11;15.10;;;8.60;;
3085;SDS011;52812;48.960;9.108;2023-04-06T13:10:37;16.17;;;8.80;;
3085;SDS011;52812;48.960;9.108;2023-04-06T13:13:03;14.47;;;8.93;;
3085;SDS011;52812;48.960;9.108;2023-04-06T13:15:29;14.17;;;8.00;;
3085;SDS011;52812;48.960;9.108;2023-04-06T13:17:57;12.03;;;8.20;;
3085;SDS011;52812;48.960;9.108;2023-04-06T13:20:22;11.30;;;7.60;;
3085;SDS011;52812;48.960;9.108;2023-04-06T13:22:51;13.23;;;8.30;;
3085;SDS011;52812;48.960;9.108;2023-04-06T13:25:16;12.33;;;8.03;;
3085;SDS011;52812;48.960;9.108;2023-04-06T13:27:42;11.80;;;8.63;;
3085;SDS011;52812;48.960;9.108;2023-04-06T13:30:11;14.10;;;8.33;;
3085;SDS011;52812;48.960;9.108;2023-04-06T13:32:38;12.20;;;8.13;;
3085;SDS011;52812;48.960;9.108;2023-04-06T13:35:03;14.90;;;8.60;;
3085;SDS011;52812;48.960;9.108;2023-04-06T13:37:30;12.33;;;8.70;;
3085;SDS011;52812;48.960;9.108;2023-04-06T13:39:55;12.40;;;8.37;;
3085;SDS011;52812;48.960;9.108;2023-04-06T13:42:21;10.13;;;7.70;;
3085;SDS011;52812;48.960;9.108;2023-04-06T13:44:49;13.50;;;7.83;;
3085;SDS011;52812;48.960;9.108;2023-04-06T13:47:15;13.87;;;8.00;;
3085;SDS011;52812;48.960;9.108;2023-04-06T13:49:45;12.23;;;8.20;;
3085;SDS011;52812;48.960;9.108;2023-04-06T13:52:11;16.63;;;9.50;;
3085;SDS011;52812;48.960;9.108;2023-04-06T13:54:37;12.90;;;8.57;;
3085;SDS011;52812;48.960;9.108;2023-04-06T13:57:03;13.53;;;8.93;;
3085;SDS011;52812;48.960;9.108;2023-04-06T13:59:32;13.53;;;8.00;;
3085;SDS011;52812;48.960;9.108;2023-04-06T14:02:01;11.37;;;8.17;;
3085;SDS011;52812;48.960;9.108;2023-04-06T14:04:28;10.40;;;7.87;;
3085;SDS011;52812;48.960;9.108;2023-04-06T14:06:54;13.27;;;8.33;;
3085;SDS011;52812;48.960;9.108;2023-04-06T14:09:19;13.30;;;7.90;;
3085;SDS011;52812;48.960;9.108;2023-04-06T14:11:48;11.93;;;7.87;;
3085;SDS011;52812;48.960;9.108;2023-04-06T14:14:15;13.20;;;8.37;;
3085;SDS011;52812;48.960;9.108;2023-04-06T14:16:41;13.53;;;8.80;;
3085;SDS011;52812;48.960;9.108;2023-04-06T14:19:11;16.10;;;8.87;;
3085;SDS011;52812;48.960;9.108;2023-04-06T14:21:41;13.40;;;8.10;;
3085;SDS011;52812;48.960;9.108;2023-04-06T14:24:07;10.63;;;7.43;;
3085;SDS011;52812;48.960;9.108;2023-04-06T14:26:34;11.70;;;8.07;;
3085;SDS011;52812;48.960;9.108;2023-04-06T14:29:00;12.50;;;7.20;;
3085;SDS011;52812;48.960;9.108;2023-04-06T14:31:26;12.57;;;8.20;;
3085;SDS011;52812;48.960;9.108;2023-04-06T14:33:52;12.53;;;8.43;;
3085;SDS011;52812;48.960;9.108;2023-04-06T14:36:18;14.97;;;9.07;;
3085;SDS011;52812;48.960;9.108;2023-04-06T14:38:43;13.20;;;8.73;;
3085;SDS011;52812;48.960;9.108;2023-04-06T14:41:18;11.53;;;8.20;;
3085;SDS011;52812;48.960;9.108;2023-04-06T14:43:48;15.40;;;8.77;;
3085;SDS011;52812;48.960;9.108;2023-04-06T14:46:14;11.33;;;7.87;;